createdAt,value
2023-05-02T00:02:05.565Z,6.33
2023-05-02T00:04:33.360Z,6.30
2023-05-02T00:07:01.097Z,5.97
2023-05-02T00:09:28.433Z,5.80
2023-05-02T00:11:55.780Z,6.50
2023-05-02T00:14:23.148Z,6.40
2023-05-02T00:16:50.695Z,6.40
2023-05-02T00:19:18.246Z,7.27
2023-05-02T00:21:48.762Z,6.23
2023-05-02T00:24:16.679Z,5.73
2023-05-02T00:30:01.220Z,6.67
2023-05-02T00:32:28.710Z,10.10
2023-05-02T00:34:56.229Z,8.03
2023-05-02T00:37:26.904Z,8.90
2023-05-02T00:39:54.052Z,9.60
2023-05-02T00:42:21.209Z,8.87
2023-05-02T00:44:48.967Z,8.47
2023-05-02T00:47:16.472Z,9.50
2023-05-02T00:49:43.946Z,9.60
2023-05-02T00:52:11.388Z,8.80
2023-05-02T00:54:43.198Z,9.93
2023-05-02T00:57:10.927Z,9.37
2023-05-02T00:59:38.195Z,8.37
2023-05-02T01:02:11.667Z,8.87
2023-05-02T01:04:59.761Z,9.97
2023-05-02T01:07:33.410Z,9.27
2023-05-02T01:10:03.825Z,9.87
2023-05-02T01:12:46.670Z,10.90
2023-05-02T01:15:17.792Z,9.10
2023-05-02T01:17:46.741Z,9.07
2023-05-02T01:20:15.620Z,10.03
2023-05-02T01:22:43.262Z,9.27
2023-05-02T01:25:21.636Z,10.07
2023-05-02T01:28:14.056Z,11.00
2023-05-02T01:30:42.907Z,11.13
2023-05-02T01:33:12.651Z,10.10
2023-05-02T01:35:40.716Z,11.07
2023-05-02T01:38:08.503Z,11.50
2023-05-02T01:40:37.693Z,11.00
2023-05-02T01:43:09.002Z,11.70
2023-05-02T01:45:37.490Z,13.47
2023-05-02T01:48:07.913Z,11.50
2023-05-02T01:50:37.054Z,10.90
2023-05-02T01:53:05.302Z,11.73
2023-05-02T01:55:35.235Z,12.00
2023-05-02T01:58:03.385Z,11.67
2023-05-02T02:00:31.735Z,11.30
2023-05-02T02:02:59.681Z,12.33
2023-05-02T02:05:28.115Z,11.53
2023-05-02T02:07:55.669Z,11.20
2023-05-02T02:10:23.595Z,11.10
2023-05-02T02:12:55.464Z,12.27
2023-05-02T02:15:28.056Z,11.60
2023-05-02T02:18:03.235Z,12.30
2023-05-02T02:20:32.425Z,12.90
2023-05-02T02:23:01.454Z,12.23
2023-05-02T02:25:29.482Z,12.90
2023-05-02T02:27:57.653Z,12.80
2023-05-02T02:30:24.856Z,13.67
2023-05-02T02:32:52.467Z,13.60
2023-05-02T02:35:20.300Z,13.80
2023-05-02T02:37:48.964Z,12.50
2023-05-02T02:40:28.414Z,12.80
2023-05-02T02:43:15.212Z,12.73
2023-05-02T02:46:09.637Z,14.80
2023-05-02T02:48:40.877Z,15.80
2023-05-02T02:51:15.738Z,16.10
2023-05-02T02:53:43.082Z,17.03
2023-05-02T02:56:18.064Z,17.67
2023-05-02T02:58:54.514Z,16.90
2023-05-02T03:01:23.274Z,19.70
2023-05-02T03:03:52.228Z,18.07
2023-05-02T03:06:20.976Z,18.87
2023-05-02T03:08:48.533Z,17.00
2023-05-02T03:11:19.974Z,18.17
2023-05-02T03:13:47.682Z,17.90
2023-05-02T03:16:30.982Z,19.20
2023-05-02T03:18:59.028Z,21.30
2023-05-02T03:21:26.680Z,15.43
2023-05-02T03:23:56.362Z,15.10
2023-05-02T03:26:23.588Z,14.97
2023-05-02T03:28:51.571Z,15.40
2023-05-02T03:31:26.406Z,14.87
2023-05-02T03:33:54.434Z,14.70
2023-05-02T03:36:22.245Z,14.77
2023-05-02T03:38:52.172Z,15.27
2023-05-02T03:41:20.822Z,15.87
2023-05-02T03:43:54.616Z,15.53
2023-05-02T03:46:24.442Z,17.27
2023-05-02T03:48:52.390Z,19.00
2023-05-02T03:51:19.699Z,18.40
2023-05-02T03:53:51.453Z,20.20
2023-05-02T03:56:22.029Z,17.10
2023-05-02T03:58:59.875Z,20.33
2023-05-02T04:01:28.270Z,17.90
2023-05-02T04:03:57.163Z,17.30
2023-05-02T04:06:26.566Z,19.57
2023-05-02T04:08:59.829Z,19.80
2023-05-02T04:11:33.624Z,20.50
2023-05-02T04:14:02.517Z,19.80
2023-05-02T04:16:29.804Z,23.53
2023-05-02T04:18:57.295Z,21.70
2023-05-02T04:21:25.359Z,21.00
2023-05-02T04:23:53.406Z,22.57
2023-05-02T04:26:21.583Z,21.53
2023-05-02T04:28:54.698Z,21.03
2023-05-02T04:31:21.986Z,20.57
2023-05-02T04:33:49.139Z,21.20
2023-05-02T04:36:20.457Z,22.00
2023-05-02T04:38:48.121Z,20.30
2023-05-02T04:41:17.417Z,21.83
2023-05-02T04:43:50.914Z,21.83
2023-05-02T04:46:18.832Z,21.27
2023-05-02T04:48:46.553Z,25.07
2023-05-02T04:51:16.291Z,20.57
2023-05-02T04:53:48.202Z,23.13
2023-05-02T04:56:15.408Z,22.97
2023-05-02T04:58:43.190Z,22.37
2023-05-02T05:01:12.307Z,22.27
2023-05-02T05:03:40.581Z,21.50
2023-05-02T05:06:08.902Z,21.43
2023-05-02T05:08:36.152Z,21.10
2023-05-02T05:11:05.059Z,21.50
2023-05-02T05:13:32.738Z,21.33
2023-05-02T05:16:00.084Z,23.73
2023-05-02T05:18:30.853Z,25.70
2023-05-02T05:20:58.633Z,24.10
2023-05-02T05:23:25.866Z,24.53
2023-05-02T05:25:54.032Z,27.33
2023-05-02T05:28:21.211Z,26.87
2023-05-02T05:30:48.417Z,26.30
2023-05-02T05:33:20.377Z,26.27
2023-05-02T05:35:47.721Z,29.40
2023-05-02T05:38:15.004Z,29.30
2023-05-02T05:40:45.105Z,28.27
2023-05-02T05:43:12.428Z,28.30
2023-05-02T05:45:40.155Z,28.47
2023-05-02T05:48:07.858Z,28.77
2023-05-02T05:50:41.207Z,29.40
2023-05-02T05:53:08.348Z,26.77
2023-05-02T05:55:39.622Z,27.63
2023-05-02T05:58:09.125Z,27.27
2023-05-02T06:00:38.323Z,27.13
2023-05-02T06:03:08.138Z,26.73
2023-05-02T06:05:37.028Z,26.97
2023-05-02T06:08:04.362Z,26.90
2023-05-02T06:10:32.725Z,27.27
2023-05-02T06:13:00.088Z,25.33
2023-05-02T06:15:34.446Z,27.77
2023-05-02T06:18:02.511Z,26.00
2023-05-02T06:20:29.670Z,28.40
2023-05-02T06:22:56.871Z,25.67
2023-05-02T06:25:24.277Z,28.60
2023-05-02T06:27:51.385Z,27.87
2023-05-02T06:30:18.546Z,24.50
2023-05-02T06:32:46.025Z,26.07
2023-05-02T06:35:13.241Z,25.50
2023-05-02T06:37:40.395Z,25.83
2023-05-02T06:40:08.223Z,24.63
2023-05-02T06:42:35.368Z,23.70
2023-05-02T06:45:02.546Z,24.10
2023-05-02T06:47:29.781Z,23.37
2023-05-02T06:49:57.077Z,25.43
2023-05-02T06:52:24.514Z,24.30
2023-05-02T06:54:51.688Z,23.30
2023-05-02T06:57:18.958Z,24.43
2023-05-02T06:59:46.205Z,22.90
2023-05-02T07:02:13.350Z,22.17
2023-05-02T07:04:40.533Z,23.00
2023-05-02T07:07:07.718Z,23.70
2023-05-02T07:09:34.973Z,24.60
2023-05-02T07:12:04.576Z,24.23
2023-05-02T07:14:33.274Z,22.83
2023-05-02T07:17:00.500Z,21.43
2023-05-02T07:19:27.673Z,21.70
2023-05-02T07:21:54.942Z,20.90
2023-05-02T07:24:22.520Z,20.53
2023-05-02T07:26:49.719Z,22.13
2023-05-02T07:29:16.936Z,21.10
2023-05-02T07:31:44.139Z,23.13
2023-05-02T07:34:11.483Z,22.03
2023-05-02T07:36:39.679Z,21.80
2023-05-02T07:39:06.807Z,21.90
2023-05-02T07:41:33.910Z,22.03
2023-05-02T07:44:01.520Z,21.87
2023-05-02T07:46:28.708Z,20.77
2023-05-02T07:48:55.893Z,20.23
2023-05-02T07:51:23.221Z,19.60
2023-05-02T07:53:55.788Z,18.23
2023-05-02T07:56:22.942Z,19.23
2023-05-02T07:58:51.478Z,20.03
2023-05-02T08:01:18.747Z,21.00
2023-05-02T08:03:46.995Z,21.20
2023-05-02T08:06:14.467Z,20.90
2023-05-02T08:08:41.690Z,21.07
2023-05-02T08:11:08.987Z,21.67
2023-05-02T08:13:37.144Z,18.30
2023-05-02T08:16:04.355Z,20.40
2023-05-02T08:18:31.545Z,18.03
2023-05-02T08:20:58.742Z,18.00
2023-05-02T08:23:25.871Z,19.23
2023-05-02T08:25:53.092Z,18.00
2023-05-02T08:28:20.511Z,16.00
2023-05-02T08:30:48.902Z,16.73
2023-05-02T08:33:16.940Z,16.27
2023-05-02T08:35:44.153Z,16.13
2023-05-02T08:38:11.442Z,17.00
2023-05-02T08:40:42.683Z,17.30
2023-05-02T08:43:12.085Z,18.03
2023-05-02T08:45:43.285Z,18.67
2023-05-02T08:48:12.027Z,19.50
2023-05-02T08:50:41.474Z,18.43
2023-05-02T08:53:13.554Z,16.97
2023-05-02T08:55:41.674Z,18.83
2023-05-02T08:58:09.635Z,19.43
2023-05-02T09:00:39.939Z,18.80
2023-05-02T09:03:16.468Z,18.43
2023-05-02T09:05:44.440Z,16.67
2023-05-02T09:08:11.786Z,17.00
2023-05-02T09:10:40.760Z,17.27
2023-05-02T09:13:26.873Z,16.57
2023-05-02T09:15:59.930Z,17.00
2023-05-02T09:18:31.334Z,16.63
2023-05-02T09:20:59.514Z,16.73
2023-05-02T09:23:33.559Z,18.80
2023-05-02T09:26:01.685Z,16.20
2023-05-02T09:28:39.360Z,16.17
2023-05-02T09:31:15.564Z,16.10
2023-05-02T09:33:46.371Z,14.70
2023-05-02T09:36:14.763Z,16.10
2023-05-02T09:38:43.684Z,18.30
2023-05-02T09:41:11.342Z,14.30
2023-05-02T09:43:39.283Z,17.07
2023-05-02T09:46:10.380Z,12.07
2023-05-02T09:48:54.265Z,12.57
2023-05-02T09:51:21.813Z,10.13
2023-05-02T09:53:51.154Z,10.97
2023-05-02T09:56:18.629Z,10.30
2023-05-02T09:58:45.883Z,11.20
2023-05-02T10:01:17.979Z,11.53
2023-05-02T10:03:49.248Z,13.43
2023-05-02T10:06:17.659Z,11.93
2023-05-02T10:08:45.534Z,13.47
2023-05-02T10:11:13.939Z,12.23
2023-05-02T10:13:42.711Z,12.20
2023-05-02T10:16:11.594Z,13.50
2023-05-02T10:18:41.909Z,12.93
2023-05-02T10:21:12.575Z,11.70
2023-05-02T10:23:45.664Z,10.80
2023-05-02T10:26:17.844Z,12.00
2023-05-02T10:28:46.116Z,20.20
2023-05-02T10:31:13.996Z,10.47
2023-05-02T10:33:41.850Z,12.17
2023-05-02T10:36:10.277Z,15.00
2023-05-02T10:38:38.120Z,15.30
2023-05-02T10:41:22.848Z,13.43
2023-05-02T10:43:50.565Z,10.23
2023-05-02T10:46:30.960Z,10.13
2023-05-02T10:49:02.442Z,9.80
2023-05-02T10:51:31.281Z,10.80
2023-05-02T10:54:16.536Z,8.50
2023-05-02T10:57:06.222Z,8.80
2023-05-02T10:59:34.808Z,8.20
2023-05-02T11:02:03.046Z,11.47
2023-05-02T11:04:50.362Z,10.53
2023-05-02T11:07:18.391Z,8.33
2023-05-02T11:09:45.522Z,7.70
2023-05-02T11:12:33.809Z,8.53
2023-05-02T11:15:01.459Z,7.53
2023-05-02T11:17:29.041Z,9.73
2023-05-02T11:19:56.264Z,11.80
2023-05-02T11:22:28.088Z,9.50
2023-05-02T11:24:55.606Z,6.70
2023-05-02T11:27:36.257Z,5.90
2023-05-02T11:30:07.564Z,6.70
2023-05-02T11:32:47.499Z,7.53
2023-05-02T11:35:18.369Z,8.50
2023-05-02T11:37:56.536Z,6.53
2023-05-02T11:40:24.457Z,7.00
2023-05-02T11:42:51.670Z,5.10
2023-05-02T11:45:19.029Z,4.70
2023-05-02T11:47:46.505Z,5.50
2023-05-02T11:50:13.802Z,6.03
2023-05-02T11:52:41.939Z,5.23
2023-05-02T11:55:11.778Z,5.90
2023-05-02T11:57:39.697Z,6.00
2023-05-02T12:00:10.855Z,6.33
2023-05-02T12:02:38.085Z,5.77
2023-05-02T12:05:06.085Z,5.80
2023-05-02T12:07:40.131Z,5.47
2023-05-02T12:10:08.126Z,4.03
2023-05-02T12:12:35.771Z,5.17
2023-05-02T12:15:06.281Z,4.60
2023-05-02T12:17:44.081Z,3.90
2023-05-02T12:20:11.808Z,5.17
2023-05-02T12:22:41.736Z,3.93
2023-05-02T12:25:08.959Z,4.20
2023-05-02T12:27:37.821Z,5.20
2023-05-02T12:30:05.987Z,4.50
2023-05-02T12:32:34.472Z,4.60
2023-05-02T12:35:02.966Z,5.37
2023-05-02T12:37:34.175Z,4.67
2023-05-02T12:40:01.724Z,5.13
2023-05-02T12:42:29.143Z,4.50
2023-05-02T12:44:57.382Z,4.57
2023-05-02T12:47:25.120Z,4.90
2023-05-02T12:49:53.130Z,5.20
2023-05-02T12:52:21.157Z,5.33
2023-05-02T12:54:48.617Z,4.07
2023-05-02T12:57:26.468Z,4.77
2023-05-02T12:59:54.466Z,7.63
2023-05-02T13:02:22.574Z,5.27
2023-05-02T13:04:49.910Z,5.37
2023-05-02T13:07:17.185Z,4.80
2023-05-02T13:09:44.362Z,5.20
2023-05-02T13:12:12.450Z,6.40
2023-05-02T13:14:41.050Z,5.20
2023-05-02T13:17:10.688Z,5.70
2023-05-02T13:19:40.525Z,5.00
2023-05-02T13:22:11.784Z,4.93
2023-05-02T13:24:38.925Z,6.97
2023-05-02T13:27:06.252Z,5.37
2023-05-02T13:29:33.462Z,5.20
2023-05-02T13:32:01.104Z,4.83
2023-05-02T13:34:28.332Z,5.30
2023-05-02T13:36:55.458Z,5.60
2023-05-02T13:39:22.640Z,6.00
2023-05-02T13:41:49.894Z,5.57
2023-05-02T13:44:18.758Z,5.60
2023-05-02T13:46:46.237Z,4.97
2023-05-02T13:49:13.604Z,5.27
2023-05-02T13:51:41.037Z,5.30
2023-05-02T13:54:08.522Z,5.50
2023-05-02T13:56:36.341Z,5.40
2023-05-02T13:59:07.939Z,6.40
2023-05-02T14:01:36.088Z,7.37
2023-05-02T14:04:08.428Z,4.80
2023-05-02T14:06:36.259Z,7.70
2023-05-02T14:09:03.884Z,5.13
2023-05-02T14:11:31.136Z,9.73
2023-05-02T14:13:59.659Z,5.30
2023-05-02T14:16:27.071Z,5.07
2023-05-02T14:18:56.326Z,6.97
2023-05-02T14:21:23.471Z,5.33
2023-05-02T14:23:50.625Z,5.70
2023-05-02T14:26:17.789Z,4.80
2023-05-02T14:28:45.060Z,4.57
2023-05-02T14:31:12.662Z,4.70
2023-05-02T14:33:39.954Z,5.37
2023-05-02T14:36:07.097Z,4.77
2023-05-02T14:38:34.267Z,5.60
2023-05-02T14:41:02.980Z,5.23
2023-05-02T14:43:30.342Z,5.93
2023-05-02T14:45:58.809Z,6.20
2023-05-02T14:48:26.989Z,5.67
2023-05-02T14:50:54.109Z,5.53
2023-05-02T14:53:21.742Z,6.07
2023-05-02T14:55:48.877Z,6.70
2023-05-02T14:58:20.371Z,6.77
2023-05-02T15:00:48.015Z,6.37
2023-05-02T15:03:16.515Z,6.87
2023-05-02T15:05:43.759Z,5.90
2023-05-02T15:08:10.943Z,7.13
2023-05-02T15:10:38.734Z,7.07
2023-05-02T15:13:06.612Z,7.90
2023-05-02T15:15:33.930Z,7.30
2023-05-02T15:18:01.116Z,6.87
2023-05-02T15:20:28.342Z,7.10
2023-05-02T15:22:55.489Z,7.20
2023-05-02T15:25:22.926Z,7.17
2023-05-02T15:27:51.403Z,7.93
2023-05-02T15:30:19.203Z,8.33
2023-05-02T15:32:47.844Z,8.47
2023-05-02T15:35:15.037Z,8.00
2023-05-02T15:37:42.239Z,7.93
2023-05-02T15:40:11.880Z,8.27
2023-05-02T15:42:39.036Z,8.03
2023-05-02T15:45:06.563Z,7.60
2023-05-02T15:47:33.868Z,7.63
2023-05-02T15:50:01.719Z,7.43
2023-05-02T15:52:29.445Z,6.47
2023-05-02T15:54:56.747Z,6.70
2023-05-02T15:57:23.987Z,5.90
2023-05-02T15:59:51.973Z,6.20
2023-05-02T16:02:19.489Z,6.50
2023-05-02T16:04:47.107Z,4.90
2023-05-02T16:07:15.143Z,6.00
2023-05-02T16:09:42.432Z,5.50
2023-05-02T16:12:11.122Z,5.50
2023-05-02T16:14:38.282Z,5.27
2023-05-02T16:17:05.483Z,5.30
2023-05-02T16:19:33.460Z,6.10
2023-05-02T16:22:01.055Z,5.80
2023-05-02T16:24:28.434Z,5.77
2023-05-02T16:26:56.000Z,5.50
2023-05-02T16:29:23.656Z,5.20
2023-05-02T16:31:51.075Z,5.80
2023-05-02T16:34:20.378Z,6.07
2023-05-02T16:36:48.838Z,5.77
2023-05-02T16:39:16.326Z,5.90
2023-05-02T16:41:44.914Z,5.60
2023-05-02T16:44:12.169Z,5.13
2023-05-02T16:46:39.466Z,6.50
2023-05-02T16:49:06.811Z,6.10
2023-05-02T16:51:34.237Z,7.33
2023-05-02T16:54:01.759Z,6.60
2023-05-02T16:56:29.325Z,6.50
2023-05-02T16:58:58.282Z,6.67
2023-05-02T17:01:25.535Z,5.97
2023-05-02T17:03:52.755Z,6.43
2023-05-02T17:06:20.172Z,6.80
2023-05-02T17:08:47.464Z,6.67
2023-05-02T17:11:16.347Z,7.37
2023-05-02T17:13:43.823Z,7.47
2023-05-02T17:16:12.391Z,6.80
2023-05-02T17:18:40.024Z,5.97
2023-05-02T17:21:08.031Z,6.40
2023-05-02T17:23:35.218Z,6.70
2023-05-02T17:26:02.925Z,5.97
2023-05-02T17:28:30.324Z,5.67
2023-05-02T17:30:59.245Z,5.20
2023-05-02T17:33:27.339Z,6.67
2023-05-02T17:35:55.355Z,6.47
2023-05-02T17:38:22.541Z,6.57
2023-05-02T17:40:49.753Z,6.57
2023-05-02T17:43:18.467Z,5.60
2023-05-02T17:45:46.326Z,5.73
2023-05-02T17:48:13.664Z,6.00
2023-05-02T17:50:42.628Z,5.90
2023-05-02T17:53:11.092Z,6.00
2023-05-02T17:55:38.866Z,5.27
2023-05-02T17:58:06.095Z,5.80
2023-05-02T18:00:33.524Z,6.13
2023-05-02T18:03:00.749Z,5.80
2023-05-02T18:05:28.432Z,4.60
2023-05-02T18:07:55.844Z,6.20
2023-05-02T18:10:23.024Z,5.83
2023-05-02T18:12:50.832Z,5.10
2023-05-02T18:15:18.088Z,5.17
2023-05-02T18:17:45.578Z,5.20
2023-05-02T18:20:13.381Z,5.37
2023-05-02T18:22:40.560Z,4.60
2023-05-02T18:25:08.212Z,5.13
2023-05-02T18:27:36.359Z,5.30
2023-05-02T18:30:03.648Z,5.63
2023-05-02T18:32:34.007Z,5.70
2023-05-02T18:35:01.965Z,5.80
2023-05-02T18:37:31.682Z,5.13
2023-05-02T18:40:00.608Z,4.73
2023-05-02T18:42:28.195Z,6.47
2023-05-02T18:44:56.396Z,6.13
2023-05-02T18:47:24.504Z,5.27
2023-05-02T18:49:52.016Z,5.90
2023-05-02T18:52:19.257Z,6.90
2023-05-02T18:54:46.466Z,6.17
2023-05-02T18:57:20.761Z,7.20
2023-05-02T18:59:48.092Z,6.07
2023-05-02T19:02:16.080Z,6.10
2023-05-02T19:04:43.319Z,5.80
2023-05-02T19:07:10.617Z,5.80
2023-05-02T19:09:37.837Z,5.30
2023-05-02T19:12:05.902Z,6.43
2023-05-02T19:14:35.787Z,5.87
2023-05-02T19:17:04.844Z,6.17
2023-05-02T19:19:33.085Z,5.87
2023-05-02T19:22:00.436Z,6.20
2023-05-02T19:24:30.055Z,5.43
2023-05-02T19:26:57.754Z,5.90
2023-05-02T19:29:25.023Z,6.00
2023-05-02T19:31:52.328Z,5.70
2023-05-02T19:34:21.590Z,5.37
2023-05-02T19:36:48.825Z,6.00
2023-05-02T19:39:18.359Z,5.90
2023-05-02T19:41:48.184Z,6.63
2023-05-02T19:44:15.844Z,5.70
2023-05-02T19:46:43.542Z,5.80
2023-05-02T19:49:10.751Z,7.17
2023-05-02T19:51:38.052Z,7.30
2023-05-02T19:54:05.381Z,8.50
2023-05-02T19:56:32.638Z,6.50
2023-05-02T19:59:01.130Z,6.63
2023-05-02T20:01:31.188Z,9.20
2023-05-02T20:03:58.678Z,8.00
2023-05-02T20:06:26.343Z,6.27
2023-05-02T20:08:53.607Z,6.50
2023-05-02T20:11:21.470Z,5.20
2023-05-02T20:13:48.884Z,5.73
2023-05-02T20:16:16.158Z,6.10
2023-05-02T20:18:44.374Z,6.20
2023-05-02T20:21:11.710Z,5.60
2023-05-02T20:23:43.116Z,5.43
2023-05-02T20:26:10.511Z,5.67
2023-05-02T20:28:38.035Z,5.60
2023-05-02T20:31:05.432Z,5.47
2023-05-02T20:33:44.494Z,5.33
2023-05-02T20:36:14.156Z,5.40
2023-05-02T20:38:43.465Z,5.40
2023-05-02T20:41:14.620Z,5.60
2023-05-02T20:43:44.680Z,5.20
2023-05-02T20:46:12.757Z,5.70
2023-05-02T20:48:40.188Z,6.20
2023-05-02T20:51:08.469Z,5.20
2023-05-02T20:53:37.528Z,5.80
2023-05-02T20:56:05.497Z,5.60
2023-05-02T20:58:32.782Z,6.13
2023-05-02T21:01:00.682Z,5.40
2023-05-02T21:03:28.441Z,5.90
2023-05-02T21:05:58.880Z,5.73
2023-05-02T21:08:26.188Z,5.70
2023-05-02T21:10:53.827Z,6.90
2023-05-02T21:13:23.217Z,6.87
2023-05-02T21:15:50.515Z,5.40
2023-05-02T21:18:17.739Z,6.67
2023-05-02T21:20:45.076Z,6.70
2023-05-02T21:23:12.265Z,6.07
2023-05-02T21:25:39.463Z,6.97
2023-05-02T21:28:06.733Z,6.17
2023-05-02T21:30:33.909Z,6.20
2023-05-02T21:33:02.324Z,6.60
2023-05-02T21:35:33.991Z,7.00
2023-05-02T21:38:01.558Z,6.97
2023-05-02T21:40:33.740Z,6.23
2023-05-02T21:43:00.955Z,6.50
2023-05-02T21:45:29.723Z,6.90
2023-05-02T21:47:57.650Z,7.60
2023-05-02T21:50:24.880Z,6.53
2023-05-02T21:52:52.006Z,6.87
2023-05-02T21:55:19.233Z,7.13
2023-05-02T21:57:46.448Z,6.63
2023-05-02T22:00:13.813Z,6.70
2023-05-02T22:02:42.314Z,7.57
2023-05-02T22:05:09.680Z,6.70
2023-05-02T22:07:37.373Z,7.07
2023-05-02T22:10:06.559Z,6.87
2023-05-02T22:12:33.697Z,6.80
2023-05-02T22:15:01.365Z,7.80
2023-05-02T22:17:28.749Z,8.33
2023-05-02T22:19:56.533Z,6.20
2023-05-02T22:22:23.820Z,7.73
2023-05-02T22:24:51.249Z,6.63
2023-05-02T22:27:18.469Z,7.40
2023-05-02T22:29:45.711Z,7.37
2023-05-02T22:32:12.909Z,7.20
2023-05-02T22:34:41.305Z,7.10
2023-05-02T22:37:08.842Z,7.10
2023-05-02T22:39:36.072Z,6.80
2023-05-02T22:42:03.423Z,6.57
2023-05-02T22:44:32.166Z,8.00
2023-05-02T22:47:01.151Z,7.20
2023-05-02T22:49:28.512Z,6.97
2023-05-02T22:51:58.378Z,6.87
2023-05-02T22:54:25.623Z,6.77
2023-05-02T22:56:53.598Z,7.23
2023-05-02T22:59:20.988Z,7.20
2023-05-02T23:01:48.400Z,6.90
2023-05-02T23:04:15.778Z,7.30
2023-05-02T23:06:43.202Z,7.30
2023-05-02T23:09:10.558Z,6.73
2023-05-02T23:11:38.004Z,7.20
2023-05-02T23:14:05.572Z,7.60
2023-05-02T23:16:33.195Z,7.60
2023-05-02T23:19:00.610Z,7.57
2023-05-02T23:21:28.137Z,7.60
2023-05-02T23:23:55.635Z,7.33
2023-05-02T23:26:22.981Z,8.23
2023-05-02T23:28:51.561Z,8.07
2023-05-02T23:31:19.449Z,8.57
2023-05-02T23:33:46.742Z,10.43
2023-05-02T23:36:14.279Z,6.60
2023-05-02T23:38:41.714Z,7.43
2023-05-02T23:41:09.856Z,7.60
2023-05-02T23:43:37.641Z,7.70
2023-05-02T23:46:05.090Z,7.47
2023-05-02T23:48:32.405Z,8.10
2023-05-02T23:50:59.730Z,8.00
2023-05-02T23:53:27.130Z,8.07
2023-05-02T23:55:55.010Z,7.23
2023-05-02T23:58:22.563Z,8.53
